createdAt,value
2023-03-11T00:00:43.775Z,14.60
2023-03-11T00:03:39.586Z,10.80
2023-03-11T00:06:33.099Z,11.90
2023-03-11T00:09:26.595Z,10.80
2023-03-11T00:12:20.203Z,10.10
2023-03-11T00:15:15.917Z,13.10
2023-03-11T00:18:10.296Z,11.80
2023-03-11T00:20:50.606Z,11.40
2023-03-11T00:23:44.338Z,11.20
2023-03-11T00:26:37.925Z,10.20
2023-03-11T00:29:31.528Z,9.60
2023-03-11T00:32:25.091Z,9.40
2023-03-11T00:35:22.347Z,11.00
2023-03-11T00:38:19.071Z,9.70
2023-03-11T00:41:12.740Z,12.10
2023-03-11T00:44:06.616Z,10.60
2023-03-11T00:47:00.355Z,10.50
2023-03-11T00:49:53.872Z,10.40
2023-03-11T00:52:48.891Z,9.40
2023-03-11T00:55:42.761Z,9.50
2023-03-11T00:58:36.738Z,8.40
2023-03-11T01:01:30.363Z,9.70
2023-03-11T01:04:24.179Z,12.40
2023-03-11T01:07:17.823Z,8.20
2023-03-11T01:10:13.846Z,10.10
2023-03-11T01:13:07.657Z,9.20
2023-03-11T01:16:02.075Z,7.40
2023-03-11T01:18:56.152Z,8.10
2023-03-11T01:21:49.750Z,7.30
2023-03-11T01:24:31.950Z,8.40
2023-03-11T01:27:25.615Z,8.80
2023-03-11T01:30:22.128Z,9.30
2023-03-11T01:33:20.630Z,8.20
2023-03-11T01:36:14.744Z,8.10
2023-03-11T01:39:08.314Z,7.50
2023-03-11T01:42:01.840Z,8.80
2023-03-11T01:44:56.509Z,8.40
2023-03-11T01:47:50.154Z,7.60
2023-03-11T01:50:48.309Z,8.90
2023-03-11T01:53:42.212Z,8.50
2023-03-11T01:56:36.482Z,7.90
2023-03-11T01:59:38.051Z,6.50
2023-03-11T02:02:37.601Z,8.90
2023-03-11T02:05:31.541Z,6.90
2023-03-11T02:08:25.115Z,8.40
2023-03-11T02:11:24.887Z,6.10
2023-03-11T02:14:18.893Z,8.40
2023-03-11T02:17:12.969Z,8.90
2023-03-11T02:20:22.264Z,7.30
2023-03-11T02:23:18.713Z,6.30
2023-03-11T02:26:19.491Z,9.80
2023-03-11T02:29:14.180Z,6.90
2023-03-11T02:32:11.756Z,5.80
2023-03-11T02:35:06.089Z,5.70
2023-03-11T02:37:59.734Z,6.80
2023-03-11T02:40:57.780Z,8.60
2023-03-11T02:43:51.576Z,5.70
2023-03-11T02:46:46.064Z,6.50
2023-03-11T02:49:40.135Z,5.60
2023-03-11T02:52:35.503Z,6.10
2023-03-11T02:55:29.133Z,5.60
2023-03-11T02:58:22.647Z,6.60
2023-03-11T03:01:16.897Z,5.60
2023-03-11T03:04:10.601Z,6.40
2023-03-11T03:07:04.287Z,6.00
2023-03-11T03:09:57.870Z,5.20
2023-03-11T03:12:51.718Z,6.00
2023-03-11T03:15:45.348Z,5.80
2023-03-11T03:18:38.918Z,6.10
2023-03-11T03:21:32.448Z,6.00
2023-03-11T03:24:26.036Z,5.50
2023-03-11T03:27:19.644Z,4.90
2023-03-11T03:30:15.279Z,5.50
2023-03-11T03:33:09.518Z,4.80
2023-03-11T03:36:13.924Z,5.40
2023-03-11T03:39:08.460Z,5.10
2023-03-11T03:42:02.009Z,5.10
2023-03-11T03:44:55.570Z,5.30
2023-03-11T03:47:49.111Z,4.40
2023-03-11T03:50:43.557Z,4.50
2023-03-11T03:53:38.027Z,5.30
2023-03-11T03:56:31.670Z,5.30
2023-03-11T03:59:25.230Z,5.10
2023-03-11T04:02:18.832Z,4.20
2023-03-11T04:05:13.548Z,4.40
2023-03-11T04:08:07.730Z,4.70
2023-03-11T04:11:04.413Z,4.60
2023-03-11T04:13:58.045Z,4.60
2023-03-11T04:16:51.747Z,4.70
2023-03-11T04:19:45.315Z,4.40
2023-03-11T04:22:38.944Z,5.00
2023-03-11T04:25:34.384Z,3.90
2023-03-11T04:28:27.922Z,3.20
2023-03-11T04:31:21.641Z,5.60
2023-03-11T04:34:15.256Z,4.20
2023-03-11T04:37:09.024Z,3.80
2023-03-11T04:40:06.590Z,4.40
2023-03-11T04:43:00.130Z,3.60
2023-03-11T04:45:54.245Z,3.30
2023-03-11T04:48:47.878Z,3.10
2023-03-11T04:51:41.478Z,3.50
2023-03-11T04:54:35.148Z,5.30
2023-03-11T04:57:28.887Z,3.80
2023-03-11T05:00:25.302Z,6.10
2023-03-11T05:03:19.372Z,5.10
2023-03-11T05:06:13.126Z,3.60
2023-03-11T05:09:06.940Z,4.30
2023-03-11T05:12:01.632Z,7.20
2023-03-11T05:14:55.132Z,3.30
2023-03-11T05:17:48.881Z,4.20
2023-03-11T05:20:42.560Z,4.40
2023-03-11T05:23:36.649Z,3.70
2023-03-11T05:26:30.690Z,5.00
2023-03-11T05:29:24.760Z,3.30
2023-03-11T05:32:19.441Z,6.50
2023-03-11T05:35:13.600Z,2.70
2023-03-11T05:38:08.326Z,5.70
2023-03-11T05:41:01.946Z,6.60
2023-03-11T05:43:55.571Z,2.50
2023-03-11T05:46:49.496Z,2.40
2023-03-11T05:49:43.111Z,5.20
2023-03-11T05:52:36.720Z,5.30
2023-03-11T05:55:30.316Z,3.20
2023-03-11T05:58:23.966Z,5.90
2023-03-11T06:01:20.292Z,4.30
2023-03-11T06:04:14.817Z,3.40
2023-03-11T06:07:08.801Z,3.90
2023-03-11T06:10:02.542Z,4.60
2023-03-11T06:12:56.099Z,2.40
2023-03-11T06:15:49.836Z,5.60
2023-03-11T06:18:43.613Z,4.30
2023-03-11T06:21:37.163Z,3.10
2023-03-11T06:24:30.774Z,3.80
2023-03-11T06:27:24.356Z,6.40
2023-03-11T06:30:19.413Z,3.00
2023-03-11T06:33:14.459Z,4.00
2023-03-11T06:36:11.493Z,3.00
2023-03-11T06:39:05.779Z,5.40
2023-03-11T06:41:59.339Z,2.80
2023-03-11T06:44:52.938Z,3.00
2023-03-11T06:47:46.614Z,6.50
2023-03-11T06:50:40.300Z,4.80
2023-03-11T06:53:33.948Z,2.60
2023-03-11T06:56:27.921Z,4.10
2023-03-11T06:59:22.897Z,7.90
2023-03-11T07:02:17.097Z,3.80
2023-03-11T07:05:13.331Z,2.60
2023-03-11T07:08:07.816Z,4.00
2023-03-11T07:11:13.494Z,5.90
2023-03-11T07:14:08.043Z,4.30
2023-03-11T07:17:01.796Z,3.00
2023-03-11T07:19:56.058Z,4.10
2023-03-11T07:22:49.588Z,2.80
2023-03-11T07:25:48.824Z,3.70
2023-03-11T07:28:26.395Z,4.50
2023-03-11T07:31:23.731Z,5.90
2023-03-11T07:34:17.697Z,4.70
2023-03-11T07:37:11.436Z,4.20
2023-03-11T07:40:05.255Z,3.10
2023-03-11T07:42:59.164Z,2.20
2023-03-11T07:45:52.862Z,4.20
2023-03-11T07:48:47.003Z,2.80
2023-03-11T07:51:43.705Z,5.20
2023-03-11T07:54:22.572Z,4.50
2023-03-11T07:57:17.173Z,3.90
2023-03-11T08:00:13.618Z,6.40
2023-03-11T08:03:07.306Z,2.50
2023-03-11T08:06:01.128Z,3.40
2023-03-11T08:08:55.107Z,4.30
2023-03-11T08:11:49.810Z,4.40
2023-03-11T08:14:43.889Z,3.60
2023-03-11T08:17:37.636Z,4.30
2023-03-11T08:20:31.271Z,7.90
2023-03-11T08:23:25.200Z,5.60
2023-03-11T08:26:03.625Z,2.40
2023-03-11T08:28:59.664Z,2.60
2023-03-11T08:31:53.305Z,7.40
2023-03-11T08:34:47.133Z,3.50
2023-03-11T08:37:40.930Z,5.40
2023-03-11T08:40:34.458Z,7.80
2023-03-11T08:43:28.321Z,4.30
2023-03-11T08:46:28.300Z,2.70
2023-03-11T08:49:22.418Z,3.70
2023-03-11T08:52:16.000Z,4.30
2023-03-11T08:55:13.549Z,3.40
2023-03-11T08:57:54.362Z,2.80
2023-03-11T09:00:48.293Z,3.50
2023-03-11T09:03:42.672Z,5.20
2023-03-11T09:06:36.590Z,2.70
2023-03-11T09:09:30.584Z,2.90
2023-03-11T09:12:24.720Z,2.60
2023-03-11T09:15:18.811Z,4.70
2023-03-11T09:18:15.410Z,3.00
2023-03-11T09:21:09.769Z,5.40
2023-03-11T09:24:04.800Z,2.80
2023-03-11T09:26:58.493Z,4.90
2023-03-11T09:29:52.049Z,4.10
2023-03-11T09:32:45.702Z,5.20
2023-03-11T09:35:40.901Z,4.60
2023-03-11T09:38:34.744Z,5.70
2023-03-11T09:41:55.374Z,5.10
2023-03-11T09:48:08.444Z,6.50
2023-03-11T09:51:09.571Z,6.50
2023-03-11T09:54:11.237Z,7.90
2023-03-11T09:57:07.681Z,8.90
2023-03-11T10:00:04.990Z,6.40
2023-03-11T10:02:59.364Z,9.00
2023-03-11T10:05:55.861Z,9.50
2023-03-11T10:09:00.318Z,7.10
2023-03-11T10:12:07.412Z,7.40
2023-03-11T10:15:19.550Z,6.30
2023-03-11T10:18:55.385Z,6.20
2023-03-11T10:22:03.864Z,7.10
2023-03-11T10:25:10.249Z,8.50
2023-03-11T10:28:11.965Z,6.60
2023-03-11T10:31:21.653Z,9.90
2023-03-11T10:34:24.156Z,9.40
2023-03-11T10:37:36.038Z,8.00
2023-03-11T10:40:44.492Z,6.30
2023-03-11T10:43:44.668Z,5.50
2023-03-11T10:46:38.538Z,6.50
2023-03-11T10:49:32.546Z,5.30
2023-03-11T10:52:26.199Z,4.40
2023-03-11T10:55:21.459Z,6.80
2023-03-11T10:58:19.887Z,5.00
2023-03-11T11:01:21.638Z,4.90
2023-03-11T11:04:39.125Z,3.10
2023-03-11T11:07:36.995Z,3.20
2023-03-11T11:13:27.137Z,3.90
2023-03-11T11:16:23.729Z,3.10
2023-03-11T11:19:18.212Z,3.10
2023-03-11T11:22:20.087Z,3.50
2023-03-11T11:25:39.391Z,4.10
2023-03-11T11:28:33.737Z,3.90
2023-03-11T11:31:29.057Z,2.70
2023-03-11T11:34:36.929Z,2.70
2023-03-11T11:37:35.277Z,3.10
2023-03-11T11:40:34.555Z,2.70
2023-03-11T11:43:43.755Z,3.10
2023-03-11T11:46:42.083Z,3.20
2023-03-11T11:49:37.973Z,2.80
2023-03-11T11:52:38.556Z,6.20
2023-03-11T11:55:34.239Z,2.90
2023-03-11T11:58:28.565Z,3.10
2023-03-11T12:01:41.812Z,2.50
2023-03-11T12:04:56.187Z,2.80
2023-03-11T12:08:07.212Z,1.90
2023-03-11T12:11:05.829Z,2.40
2023-03-11T12:14:10.200Z,2.60
2023-03-11T12:17:09.720Z,4.50
2023-03-11T12:20:12.370Z,5.90
2023-03-11T12:23:21.346Z,4.00
2023-03-11T12:26:25.212Z,3.00
2023-03-11T12:29:29.800Z,6.40
2023-03-11T12:32:32.384Z,4.50
2023-03-11T12:35:30.215Z,4.10
2023-03-11T12:38:32.405Z,3.30
2023-03-11T12:41:39.954Z,4.50
2023-03-11T12:44:34.543Z,6.20
2023-03-11T12:47:31.971Z,5.40
2023-03-11T12:50:44.665Z,2.70
2023-03-11T12:53:50.487Z,4.30
2023-03-11T12:56:50.198Z,6.00
2023-03-11T13:00:23.156Z,6.90
2023-03-11T13:03:43.022Z,8.00
2023-03-11T13:07:36.542Z,5.40
2023-03-11T13:10:42.350Z,3.60
2023-03-11T13:13:43.674Z,4.50
2023-03-11T13:16:47.632Z,6.90
2023-03-11T13:19:56.397Z,6.30
2023-03-11T13:23:30.938Z,7.10
2023-03-11T13:26:49.616Z,6.20
2023-03-11T13:30:01.337Z,5.30
2023-03-11T13:33:23.111Z,6.60
2023-03-11T13:36:37.618Z,4.50
2023-03-11T13:39:44.355Z,6.10
2023-03-11T13:42:43.872Z,3.80
2023-03-11T13:45:39.344Z,4.70
2023-03-11T13:48:37.906Z,4.20
2023-03-11T13:51:38.406Z,4.60
2023-03-11T13:54:49.070Z,3.80
2023-03-11T13:57:50.738Z,5.50
2023-03-11T14:00:53.149Z,4.50
2023-03-11T14:03:49.006Z,5.70
2023-03-11T14:06:42.899Z,6.20
2023-03-11T14:09:39.603Z,4.20
2023-03-11T14:12:34.979Z,5.80
2023-03-11T14:15:29.788Z,4.70
2023-03-11T14:18:41.539Z,5.30
2023-03-11T14:21:36.410Z,4.50
2023-03-11T14:24:32.315Z,5.20
2023-03-11T14:27:25.882Z,4.70
2023-03-11T14:30:27.811Z,5.00
2023-03-11T14:33:23.943Z,4.70
2023-03-11T14:36:19.008Z,4.40
2023-03-11T14:39:31.807Z,4.70
2023-03-11T14:42:30.601Z,6.50
2023-03-11T14:45:27.128Z,4.80
2023-03-11T14:48:28.026Z,5.60
2023-03-11T14:51:29.224Z,5.50
2023-03-11T14:54:27.267Z,6.10
2023-03-11T14:57:28.894Z,5.70
2023-03-11T15:00:27.082Z,4.60
2023-03-11T15:03:27.034Z,6.30
2023-03-11T15:06:24.992Z,5.50
2023-03-11T15:09:22.503Z,5.70
2023-03-11T15:12:38.406Z,7.60
2023-03-11T15:15:32.727Z,5.60
2023-03-11T15:18:33.365Z,6.20
2023-03-11T15:21:28.220Z,5.90
2023-03-11T15:24:27.721Z,7.10
2023-03-11T15:27:32.260Z,6.00
2023-03-11T15:30:28.929Z,5.40
2023-03-11T15:33:34.406Z,6.70
2023-03-11T15:36:39.381Z,7.60
2023-03-11T15:39:47.266Z,7.90
2023-03-11T15:42:41.386Z,6.60
2023-03-11T15:45:35.174Z,7.70
2023-03-11T15:48:31.788Z,7.30
2023-03-11T15:51:25.388Z,7.60
2023-03-11T15:54:19.147Z,8.70
2023-03-11T15:57:24.881Z,7.80
2023-03-11T16:00:24.769Z,10.60
2023-03-11T16:03:18.575Z,6.60
2023-03-11T16:06:12.450Z,6.30
2023-03-11T16:09:06.713Z,7.10
2023-03-11T16:11:40.658Z,8.10
2023-03-11T16:14:34.235Z,7.40
2023-03-11T16:17:39.466Z,7.40
2023-03-11T16:20:45.816Z,8.00
2023-03-11T16:23:51.207Z,8.20
2023-03-11T16:26:45.425Z,7.80
2023-03-11T16:29:23.306Z,6.30
2023-03-11T16:32:17.020Z,6.80
2023-03-11T16:35:12.318Z,6.70
2023-03-11T16:38:06.072Z,7.00
2023-03-11T16:41:04.132Z,6.40
2023-03-11T16:43:57.689Z,5.70
2023-03-11T16:46:51.328Z,6.20
2023-03-11T16:49:45.129Z,5.80
2023-03-11T16:52:38.878Z,5.70
2023-03-11T16:55:32.692Z,6.00
2023-03-11T16:58:26.623Z,7.60
2023-03-11T17:01:21.736Z,11.70
2023-03-11T17:04:15.761Z,8.10
2023-03-11T17:07:10.207Z,7.90
2023-03-11T17:10:05.032Z,7.20
2023-03-11T17:12:58.823Z,8.50
2023-03-11T17:16:03.812Z,9.00
2023-03-11T17:18:57.485Z,7.30
2023-03-11T17:21:51.216Z,6.80
2023-03-11T17:24:45.021Z,6.00
2023-03-11T17:27:38.575Z,6.10
2023-03-11T17:30:37.309Z,11.00
2023-03-11T17:33:31.265Z,7.80
2023-03-11T17:36:24.842Z,6.40
2023-03-11T17:39:18.569Z,7.80
2023-03-11T17:42:12.228Z,5.80
2023-03-11T17:45:06.375Z,8.50
2023-03-11T17:48:00.166Z,7.90
2023-03-11T17:50:53.650Z,5.70
2023-03-11T17:53:48.966Z,6.00
2023-03-11T17:56:42.519Z,8.30
2023-03-11T17:59:36.501Z,8.10
2023-03-11T18:02:30.118Z,8.20
2023-03-11T18:05:24.299Z,8.70
2023-03-11T18:08:18.118Z,6.70
2023-03-11T18:11:16.423Z,6.60
2023-03-11T18:14:12.693Z,6.50
2023-03-11T18:17:06.415Z,6.50
2023-03-11T18:20:01.144Z,7.80
2023-03-11T18:22:55.996Z,6.60
2023-03-11T18:25:53.765Z,6.10
2023-03-11T18:28:47.536Z,6.60
2023-03-11T18:31:41.808Z,6.70
2023-03-11T18:34:35.756Z,6.40
2023-03-11T18:37:29.559Z,7.10
2023-03-11T18:40:23.952Z,6.20
2023-03-11T18:43:18.184Z,6.90
2023-03-11T18:46:15.840Z,8.20
2023-03-11T18:52:01.981Z,8.40
2023-03-11T18:54:55.765Z,7.30
2023-03-11T18:57:49.457Z,7.90
2023-03-11T19:00:43.147Z,7.20
2023-03-11T19:03:37.270Z,10.40
2023-03-11T19:06:31.715Z,7.10
2023-03-11T19:09:25.465Z,7.40
2023-03-11T19:12:19.983Z,7.00
2023-03-11T19:15:15.632Z,6.90
2023-03-11T19:18:09.940Z,5.70
2023-03-11T19:21:05.889Z,7.70
2023-03-11T19:24:01.833Z,8.80
2023-03-11T19:26:55.453Z,6.00
2023-03-11T19:29:49.474Z,6.10
2023-03-11T19:32:43.209Z,8.60
2023-03-11T19:35:37.778Z,6.70
2023-03-11T19:38:32.314Z,7.20
2023-03-11T19:41:26.065Z,6.50
2023-03-11T19:44:19.504Z,6.80
2023-03-11T19:47:13.061Z,6.60
2023-03-11T19:49:51.447Z,9.20
2023-03-11T19:52:45.036Z,8.60
2023-03-11T19:55:38.705Z,6.40
2023-03-11T19:58:32.971Z,7.10
2023-03-11T20:01:28.284Z,6.40
2023-03-11T20:04:07.536Z,5.10
2023-03-11T20:07:01.219Z,6.90
2023-03-11T20:09:55.127Z,7.80
2023-03-11T20:13:01.446Z,6.30
2023-03-11T20:15:56.051Z,7.40
2023-03-11T20:18:51.916Z,7.80
2023-03-11T20:21:46.175Z,7.70
2023-03-11T20:24:39.862Z,7.90
2023-03-11T20:27:22.543Z,7.30
2023-03-11T20:30:07.590Z,6.60
2023-03-11T20:32:55.370Z,7.20
2023-03-11T20:35:49.071Z,5.70
2023-03-11T20:38:43.445Z,8.30
2023-03-11T20:41:41.783Z,7.50
2023-03-11T20:44:35.978Z,6.30
2023-03-11T20:47:30.887Z,7.20
2023-03-11T20:50:27.778Z,7.10
2023-03-11T20:53:23.980Z,7.50
2023-03-11T20:56:22.105Z,8.30
2023-03-11T21:02:10.202Z,8.40
2023-03-11T21:05:04.380Z,7.70
2023-03-11T21:07:57.970Z,7.80
2023-03-11T21:10:51.689Z,9.00
2023-03-11T21:13:45.768Z,9.30
2023-03-11T21:16:40.991Z,7.10
2023-03-11T21:19:35.611Z,9.30
2023-03-11T21:22:31.679Z,8.50
2023-03-11T21:25:28.905Z,8.90
2023-03-11T21:28:25.917Z,8.20
2023-03-11T21:31:28.543Z,11.40
2023-03-11T21:34:24.953Z,9.30
2023-03-11T21:37:20.534Z,7.80
2023-03-11T21:40:18.099Z,9.70
2023-03-11T21:43:13.383Z,12.00
2023-03-11T21:46:10.868Z,10.70
2023-03-11T21:52:02.098Z,11.30
2023-03-11T21:54:59.681Z,9.60
2023-03-11T21:57:53.946Z,9.30
2023-03-11T22:00:48.962Z,10.20
2023-03-11T22:03:43.790Z,9.60
2023-03-11T22:06:37.795Z,10.00
2023-03-11T22:09:31.575Z,10.10
2023-03-11T22:12:25.843Z,9.90
2023-03-11T22:15:20.135Z,11.20
2023-03-11T22:18:14.051Z,8.10
2023-03-11T22:21:10.828Z,9.60
2023-03-11T22:24:05.057Z,9.50
2023-03-11T22:26:58.857Z,9.00
2023-03-11T22:29:52.599Z,9.80
2023-03-11T22:32:46.436Z,10.40
2023-03-11T22:35:40.076Z,11.10
2023-03-11T22:38:34.221Z,10.30
2023-03-11T22:41:13.445Z,13.20
2023-03-11T22:44:07.122Z,9.10
2023-03-11T22:46:40.565Z,9.50
2023-03-11T22:49:34.970Z,12.10
2023-03-11T22:52:28.874Z,9.40
2023-03-11T22:55:23.892Z,10.30
2023-03-11T22:58:17.620Z,10.50
2023-03-11T23:01:11.906Z,10.30
2023-03-11T23:04:05.575Z,9.90
2023-03-11T23:06:59.232Z,9.20
2023-03-11T23:09:52.900Z,9.50
2023-03-11T23:12:46.566Z,13.80
2023-03-11T23:15:42.434Z,8.80
2023-03-11T23:18:36.784Z,10.40
2023-03-11T23:21:33.243Z,11.80
2023-03-11T23:24:27.510Z,9.60
2023-03-11T23:27:22.265Z,14.00
2023-03-11T23:30:18.963Z,10.90
2023-03-11T23:33:12.645Z,11.60
2023-03-11T23:36:09.942Z,10.90
2023-03-11T23:39:03.626Z,10.30
2023-03-11T23:41:57.408Z,13.20
2023-03-11T23:44:51.136Z,10.20
2023-03-11T23:47:44.817Z,10.90
2023-03-11T23:50:38.658Z,11.00
2023-03-11T23:53:32.852Z,12.50
2023-03-11T23:56:26.379Z,10.60
2023-03-11T23:59:20.061Z,9.70
